MAS8086 WMKK-OEMA
Flight info
| Callsign | MAS8086 |
|---|---|
| Flight time | N/A |
| Altitude | 32000 |
| Route | PUGER P574 ELSAR/N0502F340 P574 MMV W117 BIA W101W GUNIM N563 MEPAT/N0494F360 N563 REXOD L883 UMILA N569 TOKRA DCT ITRUX Y511 ELONU |
| Aircraft | A339/H-SADE1E2E3GHIJ3J5M1P2RWXY/LB2D1 |
Departure
| Time | 2026-05-08 09:00 |
|---|---|
| Airport | Kuala Lumpur International Airport (WMKK) |
Arrival
| Time | N/A |
|---|---|
| Airport | Prince Mohammad Bin Abdulaziz Airport (OEMA) |
| Time | Latitude | Longitude | Altitude | Speed | Heading |
|---|---|---|---|---|---|
| 2026-05-08 07:27 | 2.75021 | 101.71298 | 83 ft | 0 kts | 236° |
| 2026-05-08 08:45 | 2.75022 | 101.71299 | 83 ft | 2 kts | 236° |
| 2026-05-08 08:45 | 2.75031 | 101.71311 | 83 ft | 2 kts | 236° |
| 2026-05-08 08:45 | 2.75039 | 101.71324 | 83 ft | 2 kts | 236° |
| 2026-05-08 08:46 | 2.75048 | 101.71336 | 83 ft | 2 kts | 236° |
| 2026-05-08 08:46 | 2.75053 | 101.71344 | 83 ft | 1 kts | 236° |
| 2026-05-08 08:46 | 2.75064 | 101.71354 | 83 ft | 2 kts | 192° |
| 2026-05-08 08:46 | 2.75079 | 101.71353 | 83 ft | 1 kts | 151° |
| 2026-05-08 08:47 | 2.75084 | 101.71350 | 83 ft | 1 kts | 145° |
| 2026-05-08 08:47 | 2.75085 | 101.71349 | 83 ft | 0 kts | 145° |
| 2026-05-08 08:51 | 2.75084 | 101.71349 | 83 ft | 0 kts | 145° |
| 2026-05-08 08:51 | 2.75074 | 101.71356 | 83 ft | 0 kts | 145° |
| 2026-05-08 08:51 | 2.75053 | 101.71371 | 83 ft | 7 kts | 145° |
| 2026-05-08 08:52 | 2.75032 | 101.71413 | 83 ft | 8 kts | 81° |
| 2026-05-08 08:52 | 2.75062 | 101.71472 | 83 ft | 10 kts | 57° |
| 2026-05-08 08:52 | 2.75104 | 101.71536 | 83 ft | 10 kts | 56° |
| 2026-05-08 08:52 | 2.75146 | 101.71597 | 83 ft | 11 kts | 51° |
| 2026-05-08 08:53 | 2.75218 | 101.71608 | 83 ft | 10 kts | 323° |
| 2026-05-08 08:53 | 2.75276 | 101.71567 | 83 ft | 12 kts | 327° |
| 2026-05-08 08:53 | 2.75375 | 101.71503 | 83 ft | 20 kts | 326° |
| 2026-05-08 08:53 | 2.75459 | 101.71444 | 83 ft | 6 kts | 316° |
| 2026-05-08 08:54 | 2.75462 | 101.71392 | 83 ft | 9 kts | 250° |
| 2026-05-08 08:54 | 2.75426 | 101.71346 | 83 ft | 8 kts | 236° |
| 2026-05-08 08:54 | 2.75381 | 101.71274 | 83 ft | 16 kts | 236° |
| 2026-05-08 08:54 | 2.75313 | 101.71173 | 83 ft | 17 kts | 235° |
| 2026-05-08 08:55 | 2.75245 | 101.71074 | 83 ft | 17 kts | 236° |
| 2026-05-08 08:55 | 2.75179 | 101.70976 | 83 ft | 17 kts | 236° |
| 2026-05-08 08:55 | 2.75112 | 101.70878 | 83 ft | 16 kts | 236° |
| 2026-05-08 08:55 | 2.75045 | 101.70780 | 83 ft | 16 kts | 236° |
| 2026-05-08 08:56 | 2.74980 | 101.70682 | 83 ft | 17 kts | 236° |
| 2026-05-08 08:56 | 2.74911 | 101.70582 | 83 ft | 18 kts | 236° |
| 2026-05-08 08:56 | 2.74827 | 101.70458 | 83 ft | 23 kts | 236° |
| 2026-05-08 08:56 | 2.74730 | 101.70315 | 83 ft | 24 kts | 236° |
| 2026-05-08 08:57 | 2.74638 | 101.70179 | 83 ft | 22 kts | 236° |
| 2026-05-08 08:57 | 2.74560 | 101.70063 | 83 ft | 16 kts | 236° |
| 2026-05-08 08:57 | 2.74504 | 101.69981 | 83 ft | 10 kts | 236° |
| 2026-05-08 08:57 | 2.74465 | 101.69924 | 83 ft | 8 kts | 236° |
| 2026-05-08 08:58 | 2.74431 | 101.69874 | 83 ft | 8 kts | 236° |
| 2026-05-08 08:58 | 2.74397 | 101.69824 | 83 ft | 7 kts | 235° |
| 2026-05-08 08:58 | 2.74349 | 101.69797 | 83 ft | 9 kts | 179° |
| 2026-05-08 08:58 | 2.74288 | 101.69825 | 83 ft | 10 kts | 146° |
| 2026-05-08 08:59 | 2.74275 | 101.69833 | 83 ft | 0 kts | 146° |
| 2026-05-08 08:59 | 2.74264 | 101.69841 | 83 ft | 7 kts | 146° |
| 2026-05-08 08:59 | 2.74153 | 101.69915 | 83 ft | 41 kts | 146° |
| 2026-05-08 08:59 | 2.73734 | 101.70196 | 83 ft | 100 kts | 146° |
| 2026-05-08 09:00 | 2.73002 | 101.70688 | 83 ft | 151 kts | 147° |
| 2026-05-08 09:00 | 2.72004 | 101.71356 | 95 ft | 191 kts | 144° |
| 2026-05-08 09:00 | 2.70860 | 101.72131 | 494 ft | 198 kts | 144° |
| 2026-05-08 09:00 | 2.69728 | 101.72886 | 1101 ft | 197 kts | 145° |
| 2026-05-08 09:01 | 2.68581 | 101.73644 | 1543 ft | 199 kts | 145° |
| 2026-05-08 09:01 | 2.67384 | 101.74440 | 1767 ft | 211 kts | 145° |
| 2026-05-08 09:01 | 2.66135 | 101.75272 | 1982 ft | 223 kts | 145° |
| 2026-05-08 09:01 | 2.64783 | 101.76173 | 2222 ft | 236 kts | 145° |
| 2026-05-08 09:02 | 2.63385 | 101.77106 | 2469 ft | 249 kts | 145° |
| 2026-05-08 09:02 | 2.61896 | 101.78104 | 2725 ft | 263 kts | 145° |
| 2026-05-08 09:02 | 2.60344 | 101.79144 | 3139 ft | 270 kts | 146° |
| 2026-05-08 09:02 | 2.58783 | 101.80190 | 3697 ft | 271 kts | 146° |
| 2026-05-08 09:03 | 2.57217 | 101.81239 | 4234 ft | 272 kts | 146° |
| 2026-05-08 09:03 | 2.55555 | 101.82152 | 4725 ft | 273 kts | 165° |
| 2026-05-08 09:03 | 2.53663 | 101.82256 | 5212 ft | 274 kts | 192° |
| 2026-05-08 09:03 | 2.51937 | 101.81498 | 5660 ft | 276 kts | 218° |
| 2026-05-08 09:04 | 2.50712 | 101.80026 | 6072 ft | 280 kts | 245° |
| 2026-05-08 09:04 | 2.50276 | 101.78123 | 6472 ft | 284 kts | 272° |
| 2026-05-08 09:04 | 2.50732 | 101.76229 | 6893 ft | 287 kts | 297° |
| 2026-05-08 09:04 | 2.51750 | 101.74504 | 7441 ft | 289 kts | 301° |
| 2026-05-08 09:05 | 2.52813 | 101.72786 | 8069 ft | 290 kts | 301° |
| 2026-05-08 09:05 | 2.53858 | 101.71092 | 8759 ft | 290 kts | 301° |
| 2026-05-08 09:05 | 2.54920 | 101.69364 | 9468 ft | 290 kts | 301° |
| 2026-05-08 09:05 | 2.55970 | 101.67647 | 10045 ft | 291 kts | 301° |
| 2026-05-08 09:06 | 2.57029 | 101.65911 | 10547 ft | 296 kts | 301° |
| 2026-05-08 09:06 | 2.58133 | 101.64099 | 10812 ft | 309 kts | 301° |
| 2026-05-08 09:06 | 2.59255 | 101.62256 | 11317 ft | 312 kts | 301° |
| 2026-05-08 09:06 | 2.60369 | 101.60422 | 11818 ft | 311 kts | 301° |
| 2026-05-08 09:07 | 2.61509 | 101.58541 | 12047 ft | 320 kts | 302° |
| 2026-05-08 09:07 | 2.62689 | 101.56599 | 12148 ft | 333 kts | 302° |
| 2026-05-08 09:07 | 2.63903 | 101.54601 | 12254 ft | 344 kts | 303° |
| 2026-05-08 09:07 | 2.65160 | 101.52535 | 12450 ft | 356 kts | 303° |
| 2026-05-08 09:08 | 2.66481 | 101.50366 | 12653 ft | 367 kts | 303° |
| 2026-05-08 09:08 | 2.67839 | 101.48135 | 12853 ft | 378 kts | 303° |
| 2026-05-08 09:08 | 2.69228 | 101.45853 | 13038 ft | 389 kts | 303° |
| 2026-05-08 09:08 | 2.70649 | 101.43516 | 13220 ft | 399 kts | 303° |
| 2026-05-08 09:09 | 2.72097 | 101.41135 | 13552 ft | 405 kts | 303° |
| 2026-05-08 09:09 | 2.73574 | 101.38703 | 13962 ft | 408 kts | 303° |
| 2026-05-08 09:09 | 2.75042 | 101.36289 | 14347 ft | 411 kts | 303° |
| 2026-05-08 09:09 | 2.76532 | 101.33836 | 14731 ft | 414 kts | 303° |
| 2026-05-08 09:10 | 2.78038 | 101.31354 | 15107 ft | 418 kts | 303° |
| 2026-05-08 09:10 | 2.79556 | 101.28855 | 15484 ft | 421 kts | 303° |
| 2026-05-08 09:10 | 2.81084 | 101.26337 | 15829 ft | 424 kts | 303° |
| 2026-05-08 09:10 | 2.82620 | 101.23807 | 16172 ft | 428 kts | 303° |
| 2026-05-08 09:11 | 2.84152 | 101.21282 | 16520 ft | 431 kts | 303° |
| 2026-05-08 09:11 | 2.85712 | 101.18714 | 16865 ft | 434 kts | 303° |
| 2026-05-08 09:11 | 2.87284 | 101.16124 | 17206 ft | 438 kts | 303° |
| 2026-05-08 09:11 | 2.88870 | 101.13509 | 17548 ft | 441 kts | 303° |
| 2026-05-08 09:12 | 2.90462 | 101.10889 | 17902 ft | 443 kts | 303° |
| 2026-05-08 09:12 | 2.92066 | 101.08247 | 18271 ft | 445 kts | 303° |
| 2026-05-08 09:12 | 2.93678 | 101.05591 | 18641 ft | 447 kts | 303° |
| 2026-05-08 09:12 | 2.95300 | 101.02918 | 19003 ft | 448 kts | 303° |
| 2026-05-08 09:13 | 2.96914 | 101.00259 | 19313 ft | 450 kts | 303° |
| 2026-05-08 09:13 | 2.98549 | 100.97565 | 19621 ft | 453 kts | 303° |
| 2026-05-08 09:13 | 3.00178 | 100.94879 | 19949 ft | 455 kts | 303° |
| 2026-05-08 09:13 | 3.01815 | 100.92181 | 20270 ft | 457 kts | 303° |
| 2026-05-08 09:14 | 3.03467 | 100.89455 | 20574 ft | 458 kts | 303° |
| 2026-05-08 09:14 | 3.05119 | 100.86735 | 20872 ft | 460 kts | 303° |
| 2026-05-08 09:14 | 3.06793 | 100.83980 | 21160 ft | 463 kts | 303° |
| 2026-05-08 09:14 | 3.08466 | 100.81223 | 21452 ft | 464 kts | 303° |
| 2026-05-08 09:15 | 3.10146 | 100.78455 | 21750 ft | 466 kts | 303° |
| 2026-05-08 09:15 | 3.11829 | 100.75678 | 22040 ft | 467 kts | 303° |
| 2026-05-08 09:15 | 3.13505 | 100.72915 | 22328 ft | 469 kts | 303° |
| 2026-05-08 09:15 | 3.15207 | 100.70109 | 22610 ft | 470 kts | 303° |
| 2026-05-08 09:16 | 3.16906 | 100.67309 | 22870 ft | 472 kts | 302° |
| 2026-05-08 09:16 | 3.18599 | 100.64516 | 23127 ft | 474 kts | 302° |
| 2026-05-08 09:16 | 3.20315 | 100.61684 | 23392 ft | 476 kts | 302° |
| 2026-05-08 09:16 | 3.22036 | 100.58843 | 23630 ft | 478 kts | 302° |
| 2026-05-08 09:17 | 3.23757 | 100.56004 | 23813 ft | 481 kts | 302° |
| 2026-05-08 09:17 | 3.25497 | 100.53132 | 24053 ft | 482 kts | 302° |
| 2026-05-08 09:17 | 3.27245 | 100.50246 | 24328 ft | 483 kts | 302° |
| 2026-05-08 09:17 | 3.28991 | 100.47362 | 24568 ft | 485 kts | 302° |
| 2026-05-08 09:18 | 3.30731 | 100.44488 | 24795 ft | 487 kts | 302° |
| 2026-05-08 09:18 | 3.32479 | 100.41603 | 25022 ft | 489 kts | 302° |
| 2026-05-08 09:18 | 3.34258 | 100.38664 | 25264 ft | 490 kts | 302° |
| 2026-05-08 09:18 | 3.36015 | 100.35759 | 25495 ft | 492 kts | 302° |
| 2026-05-08 09:19 | 3.37800 | 100.32810 | 25729 ft | 493 kts | 302° |
| 2026-05-08 09:19 | 3.39588 | 100.29851 | 25957 ft | 494 kts | 301° |
| 2026-05-08 09:19 | 3.41272 | 100.26878 | 26158 ft | 496 kts | 300° |
| 2026-05-08 09:19 | 3.42933 | 100.23869 | 26370 ft | 497 kts | 300° |
| 2026-05-08 09:20 | 3.44619 | 100.20798 | 26571 ft | 499 kts | 300° |
| 2026-05-08 09:20 | 3.46278 | 100.17774 | 26767 ft | 500 kts | 300° |
| 2026-05-08 09:20 | 3.47966 | 100.14693 | 26955 ft | 502 kts | 300° |
| 2026-05-08 09:20 | 3.49633 | 100.11653 | 27141 ft | 503 kts | 300° |
| 2026-05-08 09:21 | 3.51335 | 100.08549 | 27333 ft | 505 kts | 300° |
| 2026-05-08 09:21 | 3.53023 | 100.05468 | 27526 ft | 506 kts | 300° |
| 2026-05-08 09:22 | 3.63256 | 99.86794 | 28648 ft | 512 kts | 299° |
| 2026-05-08 09:23 | 3.64948 | 99.83706 | 28802 ft | 514 kts | 299° |
| 2026-05-08 09:23 | 3.66665 | 99.80572 | 29046 ft | 513 kts | 299° |
| 2026-05-08 09:23 | 3.68394 | 99.77415 | 29307 ft | 512 kts | 299° |
| 2026-05-08 09:23 | 3.70086 | 99.74327 | 29577 ft | 511 kts | 299° |
| 2026-05-08 09:24 | 3.71791 | 99.71213 | 29823 ft | 510 kts | 299° |
| 2026-05-08 09:24 | 3.73501 | 99.68089 | 30050 ft | 510 kts | 299° |
| 2026-05-08 09:24 | 3.75215 | 99.64958 | 30226 ft | 510 kts | 299° |
| 2026-05-08 09:24 | 3.76933 | 99.61820 | 30391 ft | 511 kts | 299° |
| 2026-05-08 09:25 | 3.78635 | 99.58711 | 30560 ft | 512 kts | 299° |
| 2026-05-08 09:25 | 3.80347 | 99.55583 | 30725 ft | 513 kts | 299° |
| 2026-05-08 09:25 | 3.82058 | 99.52459 | 30897 ft | 513 kts | 299° |
| 2026-05-08 09:25 | 3.83779 | 99.49315 | 31075 ft | 514 kts | 299° |
| 2026-05-08 09:26 | 3.85506 | 99.46159 | 31258 ft | 514 kts | 299° |
| 2026-05-08 09:26 | 3.87228 | 99.43012 | 31415 ft | 514 kts | 299° |
| 2026-05-08 09:26 | 3.88936 | 99.39889 | 31547 ft | 515 kts | 298° |
| 2026-05-08 09:26 | 3.90673 | 99.36716 | 31679 ft | 516 kts | 298° |
| 2026-05-08 09:27 | 3.92413 | 99.33534 | 31779 ft | 518 kts | 298° |
| 2026-05-08 09:27 | 3.95864 | 99.27212 | 31781 ft | 519 kts | 298° |
| 2026-05-08 09:28 | 3.99285 | 99.20872 | 31785 ft | 518 kts | 297° |
| 2026-05-08 09:28 | 4.02509 | 99.14453 | 31786 ft | 517 kts | 296° |
| 2026-05-08 09:29 | 4.05699 | 99.08027 | 31786 ft | 517 kts | 296° |
| 2026-05-08 09:29 | 4.08903 | 99.01599 | 31789 ft | 516 kts | 296° |
| 2026-05-08 09:30 | 4.12125 | 98.95151 | 31794 ft | 517 kts | 296° |
| 2026-05-08 09:30 | 4.15340 | 98.88720 | 31794 ft | 517 kts | 296° |
| 2026-05-08 09:31 | 4.18556 | 98.82293 | 31800 ft | 517 kts | 297° |
| 2026-05-08 09:31 | 4.21765 | 98.75878 | 31808 ft | 517 kts | 297° |
| 2026-05-08 09:32 | 4.24986 | 98.69438 | 31814 ft | 516 kts | 297° |
| 2026-05-08 09:32 | 4.28191 | 98.63025 | 31815 ft | 515 kts | 297° |
| 2026-05-08 09:33 | 4.31383 | 98.56638 | 31817 ft | 514 kts | 297° |
| 2026-05-08 09:33 | 4.34583 | 98.50236 | 31817 ft | 513 kts | 297° |
| 2026-05-08 09:34 | 4.37758 | 98.43883 | 31817 ft | 512 kts | 297° |
| 2026-05-08 09:34 | 4.40948 | 98.37498 | 31816 ft | 510 kts | 297° |
| 2026-05-08 09:35 | 4.44104 | 98.31178 | 31818 ft | 509 kts | 297° |
| 2026-05-08 09:35 | 4.47270 | 98.24835 | 31818 ft | 508 kts | 297° |
| 2026-05-08 09:36 | 4.50435 | 98.18495 | 31819 ft | 507 kts | 298° |
| 2026-05-08 09:36 | 4.53575 | 98.12206 | 31818 ft | 507 kts | 298° |
| 2026-05-08 09:37 | 4.56720 | 98.05901 | 31819 ft | 506 kts | 297° |
| 2026-05-08 09:37 | 4.59865 | 97.99597 | 31819 ft | 506 kts | 297° |
| 2026-05-08 09:38 | 4.62998 | 97.93310 | 31819 ft | 506 kts | 297° |
| 2026-05-08 09:38 | 4.66152 | 97.86986 | 31818 ft | 506 kts | 297° |
| 2026-05-08 09:39 | 4.69298 | 97.80676 | 31821 ft | 507 kts | 297° |
| 2026-05-08 09:39 | 4.72435 | 97.74381 | 31822 ft | 506 kts | 297° |
| 2026-05-08 09:40 | 4.75579 | 97.68070 | 31830 ft | 507 kts | 297° |
| 2026-05-08 09:40 | 4.78732 | 97.61739 | 31830 ft | 507 kts | 297° |
| 2026-05-08 09:41 | 4.81876 | 97.55421 | 31834 ft | 508 kts | 297° |
| 2026-05-08 09:41 | 4.85024 | 97.49097 | 31833 ft | 507 kts | 297° |
| 2026-05-08 09:42 | 4.88173 | 97.42766 | 31843 ft | 508 kts | 297° |
| 2026-05-08 09:42 | 4.91318 | 97.36439 | 31852 ft | 508 kts | 297° |
| 2026-05-08 09:43 | 4.94473 | 97.30097 | 31860 ft | 508 kts | 297° |
| 2026-05-08 09:43 | 4.97621 | 97.23766 | 31866 ft | 509 kts | 297° |
| 2026-05-08 09:44 | 5.00757 | 97.17454 | 31873 ft | 508 kts | 297° |
| 2026-05-08 09:44 | 5.03913 | 97.11098 | 31882 ft | 509 kts | 297° |
| 2026-05-08 09:45 | 5.07071 | 97.04740 | 31890 ft | 509 kts | 297° |
| 2026-05-08 09:45 | 5.10207 | 96.98423 | 31894 ft | 509 kts | 297° |
| 2026-05-08 09:46 | 5.13373 | 96.92046 | 31891 ft | 508 kts | 297° |
| 2026-05-08 09:46 | 5.16518 | 96.85709 | 31880 ft | 508 kts | 297° |
| 2026-05-08 09:47 | 5.19653 | 96.79389 | 31870 ft | 509 kts | 297° |
| 2026-05-08 09:47 | 5.22804 | 96.73036 | 31865 ft | 510 kts | 297° |
| 2026-05-08 09:48 | 5.25974 | 96.66642 | 31855 ft | 510 kts | 297° |
| 2026-05-08 09:48 | 5.29125 | 96.60281 | 31847 ft | 511 kts | 297° |
| 2026-05-08 09:49 | 5.32280 | 96.53921 | 31840 ft | 510 kts | 297° |
| 2026-05-08 09:49 | 5.35425 | 96.47573 | 31840 ft | 511 kts | 297° |
| 2026-05-08 09:50 | 5.38598 | 96.41167 | 31839 ft | 510 kts | 297° |
| 2026-05-08 09:50 | 5.41735 | 96.34831 | 31840 ft | 511 kts | 297° |
| 2026-05-08 09:51 | 5.44892 | 96.28449 | 31839 ft | 511 kts | 297° |
| 2026-05-08 09:51 | 5.48057 | 96.22048 | 31842 ft | 511 kts | 297° |
| 2026-05-08 09:52 | 5.51213 | 96.15666 | 31847 ft | 512 kts | 297° |
| 2026-05-08 09:52 | 5.54371 | 96.09277 | 31846 ft | 512 kts | 297° |
| 2026-05-08 09:53 | 5.57536 | 96.02874 | 31844 ft | 512 kts | 297° |
| 2026-05-08 09:53 | 5.60697 | 95.96475 | 31844 ft | 513 kts | 297° |
| 2026-05-08 09:54 | 5.63858 | 95.90075 | 31842 ft | 513 kts | 297° |
| 2026-05-08 09:54 | 5.67011 | 95.83685 | 31833 ft | 513 kts | 297° |
| 2026-05-08 09:55 | 5.70172 | 95.77281 | 31834 ft | 514 kts | 297° |
| 2026-05-08 09:55 | 5.73342 | 95.70859 | 31826 ft | 513 kts | 297° |
| 2026-05-08 09:56 | 5.76511 | 95.64431 | 31823 ft | 513 kts | 297° |
| 2026-05-08 09:56 | 5.79676 | 95.58013 | 31820 ft | 514 kts | 297° |
| 2026-05-08 09:57 | 5.84413 | 95.48403 | 31815 ft | 513 kts | 297° |
| 2026-05-08 09:57 | 5.87571 | 95.41990 | 31814 ft | 514 kts | 297° |
| 2026-05-08 09:58 | 5.90736 | 95.35563 | 31813 ft | 513 kts | 297° |
| 2026-05-08 09:58 | 5.93907 | 95.29119 | 31810 ft | 514 kts | 297° |
| 2026-05-08 09:59 | 5.97075 | 95.22685 | 31810 ft | 513 kts | 297° |
| 2026-05-08 09:59 | 6.00221 | 95.16290 | 31811 ft | 514 kts | 297° |
| 2026-05-08 10:00 | 6.03380 | 95.09862 | 31818 ft | 514 kts | 297° |
| 2026-05-08 10:00 | 6.06545 | 95.03425 | 31826 ft | 515 kts | 297° |
| 2026-05-08 10:01 | 6.09711 | 94.96992 | 31828 ft | 515 kts | 297° |
| 2026-05-08 10:01 | 6.12887 | 94.90530 | 31826 ft | 515 kts | 297° |
| 2026-05-08 10:02 | 6.16044 | 94.84095 | 31839 ft | 515 kts | 297° |
| 2026-05-08 10:02 | 6.17621 | 94.80884 | 32004 ft | 515 kts | 297° |
| 2026-05-08 10:02 | 6.19202 | 94.77660 | 32454 ft | 509 kts | 297° |
| 2026-05-08 10:03 | 6.20748 | 94.74503 | 33295 ft | 494 kts | 297° |
| 2026-05-08 10:03 | 6.22246 | 94.71446 | 33765 ft | 488 kts | 297° |
| 2026-05-08 10:03 | 6.25235 | 94.65356 | 33826 ft | 492 kts | 297° |
| 2026-05-08 10:04 | 6.28281 | 94.59152 | 33825 ft | 501 kts | 297° |
| 2026-05-08 10:04 | 6.31393 | 94.52805 | 33829 ft | 507 kts | 297° |
| 2026-05-08 10:05 | 6.34490 | 94.46481 | 33831 ft | 508 kts | 297° |
| 2026-05-08 10:05 | 6.37617 | 94.40099 | 33831 ft | 508 kts | 297° |
| 2026-05-08 10:06 | 6.40726 | 94.33749 | 33830 ft | 508 kts | 297° |
| 2026-05-08 10:06 | 6.43844 | 94.27380 | 33831 ft | 508 kts | 297° |
| 2026-05-08 10:07 | 6.46949 | 94.21033 | 33830 ft | 509 kts | 297° |
| 2026-05-08 10:07 | 6.50071 | 94.14650 | 33831 ft | 509 kts | 297° |
| 2026-05-08 10:08 | 6.53198 | 94.08253 | 33830 ft | 509 kts | 297° |
| 2026-05-08 10:08 | 6.56314 | 94.01878 | 33831 ft | 509 kts | 297° |
| 2026-05-08 10:09 | 6.59439 | 93.95481 | 33830 ft | 510 kts | 297° |
| 2026-05-08 10:09 | 6.62559 | 93.89095 | 33828 ft | 510 kts | 297° |
| 2026-05-08 10:10 | 6.65677 | 93.82710 | 33823 ft | 510 kts | 297° |
| 2026-05-08 10:10 | 6.68803 | 93.76305 | 33821 ft | 511 kts | 297° |
| 2026-05-08 10:11 | 6.71937 | 93.69877 | 33820 ft | 511 kts | 297° |
| 2026-05-08 10:11 | 6.75053 | 93.63486 | 33818 ft | 511 kts | 297° |
| 2026-05-08 10:12 | 6.78192 | 93.57044 | 33815 ft | 512 kts | 297° |
| 2026-05-08 10:12 | 6.81311 | 93.50640 | 33811 ft | 512 kts | 297° |
| 2026-05-08 10:13 | 6.84448 | 93.44201 | 34054 ft | 511 kts | 297° |
| 2026-05-08 10:13 | 6.85974 | 93.41065 | 34870 ft | 498 kts | 296° |
| 2026-05-08 10:13 | 6.87473 | 93.37982 | 35563 ft | 480 kts | 296° |
| 2026-05-08 10:14 | 6.88930 | 93.34982 | 35814 ft | 475 kts | 296° |
| 2026-05-08 10:14 | 6.90383 | 93.31995 | 35812 ft | 479 kts | 296° |
| 2026-05-08 10:14 | 6.93316 | 93.25968 | 35810 ft | 483 kts | 296° |
| 2026-05-08 10:15 | 6.96274 | 93.19883 | 35812 ft | 483 kts | 297° |
| 2026-05-08 10:15 | 6.99227 | 93.13810 | 35814 ft | 484 kts | 296° |
| 2026-05-08 10:16 | 7.02166 | 93.07765 | 35823 ft | 484 kts | 296° |
| 2026-05-08 10:16 | 7.05114 | 93.01694 | 35831 ft | 484 kts | 296° |
| 2026-05-08 10:17 | 7.08082 | 92.95578 | 35826 ft | 484 kts | 296° |
| 2026-05-08 10:17 | 7.11007 | 92.89543 | 35829 ft | 483 kts | 296° |